sensor_id;sensor_type;location;lat;lon;timestamp;P1;durP1;ratioP1;P2;durP2;ratioP2
81150;SDS011;70629;-26.026;27.976;2023-08-08T00:00:11;24.45;;;14.73;;
81150;SDS011;70629;-26.026;27.976;2023-08-08T00:01:47;21.30;;;15.02;;
81150;SDS011;70629;-26.026;27.976;2023-08-08T00:04:56;18.77;;;13.32;;
81150;SDS011;70629;-26.026;27.976;2023-08-08T00:06:31;27.80;;;15.85;;
81150;SDS011;70629;-26.026;27.976;2023-08-08T00:08:06;20.55;;;15.27;;
81150;SDS011;70629;-26.026;27.976;2023-08-08T00:09:41;21.92;;;13.38;;
81150;SDS011;70629;-26.026;27.976;2023-08-08T00:11:16;24.38;;;14.45;;
81150;SDS011;70629;-26.026;27.976;2023-08-08T00:14:26;25.58;;;12.82;;
81150;SDS011;70629;-26.026;27.976;2023-08-08T00:17:36;20.98;;;12.32;;
81150;SDS011;70629;-26.026;27.976;2023-08-08T00:19:11;24.25;;;13.95;;
81150;SDS011;70629;-26.026;27.976;2023-08-08T00:20:46;24.77;;;15.35;;
81150;SDS011;70629;-26.026;27.976;2023-08-08T00:22:21;21.15;;;12.90;;
81150;SDS011;70629;-26.026;27.976;2023-08-08T00:23:56;26.33;;;14.93;;
81150;SDS011;70629;-26.026;27.976;2023-08-08T00:25:31;24.42;;;15.35;;
81150;SDS011;70629;-26.026;27.976;2023-08-08T00:27:06;23.70;;;15.25;;
81150;SDS011;70629;-26.026;27.976;2023-08-08T00:30:15;22.25;;;14.70;;
81150;SDS011;70629;-26.026;27.976;2023-08-08T00:33:24;24.48;;;14.18;;
81150;SDS011;70629;-26.026;27.976;2023-08-08T00:36:33;24.80;;;15.15;;
81150;SDS011;70629;-26.026;27.976;2023-08-08T00:39:43;21.00;;;13.52;;
81150;SDS011;70629;-26.026;27.976;2023-08-08T00:41:20;19.40;;;13.23;;
81150;SDS011;70629;-26.026;27.976;2023-08-08T00:42:55;23.10;;;14.07;;
81150;SDS011;70629;-26.026;27.976;2023-08-08T00:46:05;22.17;;;13.15;;
81150;SDS011;70629;-26.026;27.976;2023-08-08T00:47:40;21.30;;;14.80;;
81150;SDS011;70629;-26.026;27.976;2023-08-08T00:49:15;22.63;;;13.70;;
81150;SDS011;70629;-26.026;27.976;2023-08-08T00:50:50;20.67;;;14.10;;
81150;SDS011;70629;-26.026;27.976;2023-08-08T00:52:26;26.42;;;13.55;;
81150;SDS011;70629;-26.026;27.976;2023-08-08T00:54:01;21.02;;;13.02;;
81150;SDS011;70629;-26.026;27.976;2023-08-08T00:55:37;22.80;;;15.90;;
81150;SDS011;70629;-26.026;27.976;2023-08-08T00:57:13;25.35;;;15.10;;
81150;SDS011;70629;-26.026;27.976;2023-08-08T00:58:48;22.17;;;14.00;;
81150;SDS011;70629;-26.026;27.976;2023-08-08T01:00:24;25.80;;;15.82;;
81150;SDS011;70629;-26.026;27.976;2023-08-08T01:02:00;25.33;;;14.38;;
81150;SDS011;70629;-26.026;27.976;2023-08-08T01:03:35;23.50;;;14.60;;
81150;SDS011;70629;-26.026;27.976;2023-08-08T01:08:24;29.38;;;15.13;;
81150;SDS011;70629;-26.026;27.976;2023-08-08T01:11:54;21.48;;;13.55;;
81150;SDS011;70629;-26.026;27.976;2023-08-08T01:13:31;27.42;;;15.02;;
81150;SDS011;70629;-26.026;27.976;2023-08-08T01:15:07;23.25;;;15.73;;
81150;SDS011;70629;-26.026;27.976;2023-08-08T01:16:43;24.27;;;13.73;;
81150;SDS011;70629;-26.026;27.976;2023-08-08T01:18:18;22.95;;;14.88;;
81150;SDS011;70629;-26.026;27.976;2023-08-08T01:19:53;29.73;;;13.93;;
81150;SDS011;70629;-26.026;27.976;2023-08-08T01:21:29;26.10;;;15.13;;
81150;SDS011;70629;-26.026;27.976;2023-08-08T01:24:45;22.02;;;15.55;;
81150;SDS011;70629;-26.026;27.976;2023-08-08T01:26:20;25.05;;;17.13;;
81150;SDS011;70629;-26.026;27.976;2023-08-08T01:27:56;24.02;;;15.85;;
81150;SDS011;70629;-26.026;27.976;2023-08-08T01:29:31;26.40;;;14.18;;
81150;SDS011;70629;-26.026;27.976;2023-08-08T01:31:06;22.23;;;14.20;;
81150;SDS011;70629;-26.026;27.976;2023-08-08T01:32:41;28.73;;;15.70;;
81150;SDS011;70629;-26.026;27.976;2023-08-08T01:34:16;23.85;;;15.13;;
81150;SDS011;70629;-26.026;27.976;2023-08-08T01:35:56;22.70;;;14.43;;
81150;SDS011;70629;-26.026;27.976;2023-08-08T01:37:36;23.77;;;15.90;;
81150;SDS011;70629;-26.026;27.976;2023-08-08T01:39:17;21.55;;;14.43;;
81150;SDS011;70629;-26.026;27.976;2023-08-08T01:40:57;37.05;;;16.55;;
81150;SDS011;70629;-26.026;27.976;2023-08-08T01:42:33;27.45;;;15.95;;
81150;SDS011;70629;-26.026;27.976;2023-08-08T01:44:08;26.10;;;16.13;;
81150;SDS011;70629;-26.026;27.976;2023-08-08T01:45:44;29.90;;;15.45;;
81150;SDS011;70629;-26.026;27.976;2023-08-08T01:47:19;26.95;;;16.48;;
81150;SDS011;70629;-26.026;27.976;2023-08-08T01:50:31;23.30;;;14.65;;
81150;SDS011;70629;-26.026;27.976;2023-08-08T01:52:06;27.67;;;16.33;;
81150;SDS011;70629;-26.026;27.976;2023-08-08T01:53:41;26.50;;;16.98;;
81150;SDS011;70629;-26.026;27.976;2023-08-08T01:56:51;27.35;;;16.77;;
81150;SDS011;70629;-26.026;27.976;2023-08-08T02:00:00;24.83;;;18.60;;
81150;SDS011;70629;-26.026;27.976;2023-08-08T02:01:37;27.38;;;16.27;;
81150;SDS011;70629;-26.026;27.976;2023-08-08T02:03:12;28.75;;;16.52;;
81150;SDS011;70629;-26.026;27.976;2023-08-08T02:04:48;28.33;;;17.35;;
81150;SDS011;70629;-26.026;27.976;2023-08-08T02:07:57;25.42;;;15.15;;
81150;SDS011;70629;-26.026;27.976;2023-08-08T02:09:32;34.58;;;16.65;;
81150;SDS011;70629;-26.026;27.976;2023-08-08T02:11:07;29.15;;;15.65;;
81150;SDS011;70629;-26.026;27.976;2023-08-08T02:14:17;31.00;;;16.55;;
81150;SDS011;70629;-26.026;27.976;2023-08-08T02:17:27;22.63;;;13.95;;
81150;SDS011;70629;-26.026;27.976;2023-08-08T02:19:03;23.38;;;16.30;;
81150;SDS011;70629;-26.026;27.976;2023-08-08T02:22:12;24.23;;;13.77;;
81150;SDS011;70629;-26.026;27.976;2023-08-08T02:23:47;24.33;;;16.02;;
81150;SDS011;70629;-26.026;27.976;2023-08-08T02:26:57;26.58;;;15.55;;
81150;SDS011;70629;-26.026;27.976;2023-08-08T02:28:32;25.73;;;15.95;;
81150;SDS011;70629;-26.026;27.976;2023-08-08T02:30:07;28.08;;;16.35;;
81150;SDS011;70629;-26.026;27.976;2023-08-08T02:31:42;23.20;;;15.43;;
81150;SDS011;70629;-26.026;27.976;2023-08-08T02:34:51;29.75;;;16.58;;
81150;SDS011;70629;-26.026;27.976;2023-08-08T02:38:00;29.27;;;14.15;;
81150;SDS011;70629;-26.026;27.976;2023-08-08T02:39:36;22.30;;;14.98;;
81150;SDS011;70629;-26.026;27.976;2023-08-08T02:42:45;25.73;;;15.82;;
81150;SDS011;70629;-26.026;27.976;2023-08-08T02:44:20;26.40;;;15.18;;
81150;SDS011;70629;-26.026;27.976;2023-08-08T02:45:56;28.55;;;16.92;;
81150;SDS011;70629;-26.026;27.976;2023-08-08T02:47:31;31.88;;;17.75;;
81150;SDS011;70629;-26.026;27.976;2023-08-08T02:50:40;26.55;;;15.38;;
81150;SDS011;70629;-26.026;27.976;2023-08-08T02:52:15;21.17;;;15.40;;
81150;SDS011;70629;-26.026;27.976;2023-08-08T02:53:50;27.60;;;16.60;;
81150;SDS011;70629;-26.026;27.976;2023-08-08T02:55:25;24.70;;;18.33;;
81150;SDS011;70629;-26.026;27.976;2023-08-08T02:58:34;21.45;;;15.75;;
81150;SDS011;70629;-26.026;27.976;2023-08-08T03:01:45;24.17;;;16.25;;
81150;SDS011;70629;-26.026;27.976;2023-08-08T03:03:21;23.23;;;16.10;;
81150;SDS011;70629;-26.026;27.976;2023-08-08T03:04:56;24.80;;;16.52;;
81150;SDS011;70629;-26.026;27.976;2023-08-08T03:08:05;26.38;;;16.88;;
81150;SDS011;70629;-26.026;27.976;2023-08-08T03:09:40;26.77;;;18.35;;
81150;SDS011;70629;-26.026;27.976;2023-08-08T03:12:50;26.77;;;16.65;;
81150;SDS011;70629;-26.026;27.976;2023-08-08T03:14:25;25.73;;;16.88;;
81150;SDS011;70629;-26.026;27.976;2023-08-08T03:17:34;25.45;;;16.25;;
81150;SDS011;70629;-26.026;27.976;2023-08-08T03:19:09;29.33;;;18.92;;
81150;SDS011;70629;-26.026;27.976;2023-08-08T03:20:45;29.60;;;18.70;;
81150;SDS011;70629;-26.026;27.976;2023-08-08T03:22:20;24.30;;;18.25;;
81150;SDS011;70629;-26.026;27.976;2023-08-08T03:25:29;30.27;;;17.38;;
81150;SDS011;70629;-26.026;27.976;2023-08-08T03:27:04;33.38;;;17.25;;
81150;SDS011;70629;-26.026;27.976;2023-08-08T03:28:39;28.05;;;15.55;;
81150;SDS011;70629;-26.026;27.976;2023-08-08T03:31:49;28.75;;;16.52;;
81150;SDS011;70629;-26.026;27.976;2023-08-08T03:33:24;30.00;;;18.38;;
81150;SDS011;70629;-26.026;27.976;2023-08-08T03:34:59;32.55;;;17.52;;
81150;SDS011;70629;-26.026;27.976;2023-08-08T03:36:34;30.70;;;17.17;;
81150;SDS011;70629;-26.026;27.976;2023-08-08T03:39:43;27.05;;;18.33;;
81150;SDS011;70629;-26.026;27.976;2023-08-08T03:42:53;31.33;;;17.77;;
81150;SDS011;70629;-26.026;27.976;2023-08-08T03:44:27;30.50;;;19.75;;
81150;SDS011;70629;-26.026;27.976;2023-08-08T03:46:03;36.20;;;20.00;;
81150;SDS011;70629;-26.026;27.976;2023-08-08T03:49:12;30.60;;;17.95;;
81150;SDS011;70629;-26.026;27.976;2023-08-08T03:50:47;31.02;;;17.63;;
81150;SDS011;70629;-26.026;27.976;2023-08-08T03:52:22;30.58;;;17.70;;
81150;SDS011;70629;-26.026;27.976;2023-08-08T03:53:58;30.55;;;17.67;;
81150;SDS011;70629;-26.026;27.976;2023-08-08T03:57:07;30.17;;;19.70;;
81150;SDS011;70629;-26.026;27.976;2023-08-08T03:58:42;37.85;;;19.98;;
81150;SDS011;70629;-26.026;27.976;2023-08-08T04:00:17;30.20;;;17.27;;
81150;SDS011;70629;-26.026;27.976;2023-08-08T04:03:27;34.20;;;19.63;;
81150;SDS011;70629;-26.026;27.976;2023-08-08T04:05:02;31.48;;;18.90;;
81150;SDS011;70629;-26.026;27.976;2023-08-08T04:08:11;28.67;;;18.67;;
81150;SDS011;70629;-26.026;27.976;2023-08-08T04:09:46;37.78;;;20.73;;
81150;SDS011;70629;-26.026;27.976;2023-08-08T04:11:21;34.22;;;19.42;;
81150;SDS011;70629;-26.026;27.976;2023-08-08T04:14:31;30.48;;;18.85;;
81150;SDS011;70629;-26.026;27.976;2023-08-08T04:16:05;37.60;;;22.15;;
81150;SDS011;70629;-26.026;27.976;2023-08-08T04:17:40;35.80;;;21.30;;
81150;SDS011;70629;-26.026;27.976;2023-08-08T04:19:15;39.80;;;22.40;;
81150;SDS011;70629;-26.026;27.976;2023-08-08T04:22:25;31.00;;;20.42;;
81150;SDS011;70629;-26.026;27.976;2023-08-08T04:24:00;32.72;;;19.52;;
81150;SDS011;70629;-26.026;27.976;2023-08-08T04:25:36;34.38;;;19.45;;
81150;SDS011;70629;-26.026;27.976;2023-08-08T04:27:11;29.48;;;20.05;;
81150;SDS011;70629;-26.026;27.976;2023-08-08T04:28:45;35.95;;;20.08;;
81150;SDS011;70629;-26.026;27.976;2023-08-08T04:30:20;37.30;;;22.77;;
81150;SDS011;70629;-26.026;27.976;2023-08-08T04:31:57;34.22;;;21.63;;
81150;SDS011;70629;-26.026;27.976;2023-08-08T04:33:32;36.22;;;20.15;;
81150;SDS011;70629;-26.026;27.976;2023-08-08T04:35:07;32.65;;;21.80;;
81150;SDS011;70629;-26.026;27.976;2023-08-08T04:36:42;37.28;;;19.65;;
81150;SDS011;70629;-26.026;27.976;2023-08-08T04:39:51;33.35;;;19.00;;
81150;SDS011;70629;-26.026;27.976;2023-08-08T04:41:26;36.45;;;22.83;;
81150;SDS011;70629;-26.026;27.976;2023-08-08T04:43:02;36.03;;;21.20;;
81150;SDS011;70629;-26.026;27.976;2023-08-08T04:46:11;35.42;;;20.80;;
81150;SDS011;70629;-26.026;27.976;2023-08-08T04:47:46;34.20;;;21.73;;
81150;SDS011;70629;-26.026;27.976;2023-08-08T04:49:22;36.53;;;22.92;;
81150;SDS011;70629;-26.026;27.976;2023-08-08T04:52:31;34.58;;;20.63;;
81150;SDS011;70629;-26.026;27.976;2023-08-08T04:54:06;35.65;;;21.52;;
81150;SDS011;70629;-26.026;27.976;2023-08-08T04:55:41;37.65;;;22.50;;
81150;SDS011;70629;-26.026;27.976;2023-08-08T04:58:50;36.65;;;21.85;;
81150;SDS011;70629;-26.026;27.976;2023-08-08T05:02:00;39.55;;;21.27;;
81150;SDS011;70629;-26.026;27.976;2023-08-08T05:05:10;31.50;;;19.35;;
81150;SDS011;70629;-26.026;27.976;2023-08-08T05:06:45;41.25;;;20.95;;
81150;SDS011;70629;-26.026;27.976;2023-08-08T05:08:20;39.65;;;24.13;;
81150;SDS011;70629;-26.026;27.976;2023-08-08T05:11:30;34.08;;;21.85;;
81150;SDS011;70629;-26.026;27.976;2023-08-08T05:14:40;34.45;;;20.30;;
81150;SDS011;70629;-26.026;27.976;2023-08-08T05:17:49;38.00;;;21.50;;
81150;SDS011;70629;-26.026;27.976;2023-08-08T05:19:25;37.88;;;22.40;;
81150;SDS011;70629;-26.026;27.976;2023-08-08T05:21:00;37.30;;;23.92;;
81150;SDS011;70629;-26.026;27.976;2023-08-08T05:24:09;31.70;;;20.05;;
81150;SDS011;70629;-26.026;27.976;2023-08-08T05:27:19;35.90;;;22.08;;
81150;SDS011;70629;-26.026;27.976;2023-08-08T05:30:28;38.67;;;22.88;;
81150;SDS011;70629;-26.026;27.976;2023-08-08T05:33:40;41.00;;;22.58;;
81150;SDS011;70629;-26.026;27.976;2023-08-08T05:35:15;39.90;;;22.98;;
81150;SDS011;70629;-26.026;27.976;2023-08-08T05:36:50;36.67;;;22.05;;
81150;SDS011;70629;-26.026;27.976;2023-08-08T05:38:45;33.05;;;22.45;;
81150;SDS011;70629;-26.026;27.976;2023-08-08T05:40:20;35.17;;;23.92;;
81150;SDS011;70629;-26.026;27.976;2023-08-08T05:43:30;35.40;;;24.27;;
81150;SDS011;70629;-26.026;27.976;2023-08-08T05:45:05;36.20;;;25.30;;
81150;SDS011;70629;-26.026;27.976;2023-08-08T05:46:40;43.45;;;24.23;;
81150;SDS011;70629;-26.026;27.976;2023-08-08T05:49:50;39.58;;;22.77;;
81150;SDS011;70629;-26.026;27.976;2023-08-08T05:51:25;32.45;;;23.33;;
81150;SDS011;70629;-26.026;27.976;2023-08-08T05:53:00;36.55;;;24.35;;
81150;SDS011;70629;-26.026;27.976;2023-08-08T05:56:09;37.47;;;22.60;;
81150;SDS011;70629;-26.026;27.976;2023-08-08T05:59:18;33.75;;;22.95;;
81150;SDS011;70629;-26.026;27.976;2023-08-08T06:02:27;34.45;;;22.27;;
81150;SDS011;70629;-26.026;27.976;2023-08-08T06:05:37;35.70;;;21.75;;
81150;SDS011;70629;-26.026;27.976;2023-08-08T06:07:12;36.17;;;22.13;;
81150;SDS011;70629;-26.026;27.976;2023-08-08T06:08:47;32.63;;;23.90;;
81150;SDS011;70629;-26.026;27.976;2023-08-08T06:11:59;37.20;;;23.65;;
81150;SDS011;70629;-26.026;27.976;2023-08-08T06:13:35;38.15;;;22.90;;
81150;SDS011;70629;-26.026;27.976;2023-08-08T06:15:12;36.60;;;21.88;;
81150;SDS011;70629;-26.026;27.976;2023-08-08T06:16:46;37.25;;;25.35;;
81150;SDS011;70629;-26.026;27.976;2023-08-08T06:18:22;48.15;;;24.50;;
81150;SDS011;70629;-26.026;27.976;2023-08-08T06:19:56;38.63;;;23.20;;
81150;SDS011;70629;-26.026;27.976;2023-08-08T06:21:31;35.90;;;25.45;;
81150;SDS011;70629;-26.026;27.976;2023-08-08T06:24:41;39.40;;;24.52;;
81150;SDS011;70629;-26.026;27.976;2023-08-08T06:26:16;35.38;;;25.55;;
81150;SDS011;70629;-26.026;27.976;2023-08-08T06:27:51;41.03;;;26.15;;
81150;SDS011;70629;-26.026;27.976;2023-08-08T06:29:26;39.90;;;23.75;;
81150;SDS011;70629;-26.026;27.976;2023-08-08T06:31:01;36.08;;;22.45;;
81150;SDS011;70629;-26.026;27.976;2023-08-08T06:34:11;38.55;;;26.15;;
81150;SDS011;70629;-26.026;27.976;2023-08-08T06:35:46;45.80;;;28.48;;
81150;SDS011;70629;-26.026;27.976;2023-08-08T06:37:21;36.92;;;25.08;;
81150;SDS011;70629;-26.026;27.976;2023-08-08T06:40:30;37.17;;;26.58;;
81150;SDS011;70629;-26.026;27.976;2023-08-08T06:42:05;36.78;;;25.88;;
81150;SDS011;70629;-26.026;27.976;2023-08-08T06:43:41;38.47;;;27.15;;
81150;SDS011;70629;-26.026;27.976;2023-08-08T06:46:50;40.83;;;26.70;;
81150;SDS011;70629;-26.026;27.976;2023-08-08T06:48:25;43.30;;;28.00;;
81150;SDS011;70629;-26.026;27.976;2023-08-08T06:50:01;38.33;;;24.70;;
81150;SDS011;70629;-26.026;27.976;2023-08-08T06:51:36;41.72;;;27.17;;
81150;SDS011;70629;-26.026;27.976;2023-08-08T06:53:11;36.42;;;25.80;;
81150;SDS011;70629;-26.026;27.976;2023-08-08T06:56:20;39.05;;;23.60;;
81150;SDS011;70629;-26.026;27.976;2023-08-08T06:57:55;37.90;;;27.80;;
81150;SDS011;70629;-26.026;27.976;2023-08-08T06:59:31;33.35;;;20.88;;
81150;SDS011;70629;-26.026;27.976;2023-08-08T07:01:06;26.50;;;18.50;;
81150;SDS011;70629;-26.026;27.976;2023-08-08T07:02:41;28.15;;;18.45;;
81150;SDS011;70629;-26.026;27.976;2023-08-08T07:04:16;29.02;;;20.25;;
81150;SDS011;70629;-26.026;27.976;2023-08-08T07:05:52;29.80;;;21.00;;
81150;SDS011;70629;-26.026;27.976;2023-08-08T07:07:26;37.05;;;19.25;;
81150;SDS011;70629;-26.026;27.976;2023-08-08T07:09:04;27.85;;;19.08;;
81150;SDS011;70629;-26.026;27.976;2023-08-08T07:10:40;23.60;;;16.60;;
81150;SDS011;70629;-26.026;27.976;2023-08-08T07:12:15;26.00;;;19.20;;
81150;SDS011;70629;-26.026;27.976;2023-08-08T07:13:50;30.73;;;17.63;;
81150;SDS011;70629;-26.026;27.976;2023-08-08T07:15:25;24.00;;;18.50;;
81150;SDS011;70629;-26.026;27.976;2023-08-08T07:17:00;36.20;;;21.70;;
81150;SDS011;70629;-26.026;27.976;2023-08-08T07:18:37;42.75;;;24.30;;
81150;SDS011;70629;-26.026;27.976;2023-08-08T07:20:12;52.88;;;27.58;;
81150;SDS011;70629;-26.026;27.976;2023-08-08T07:21:52;52.08;;;27.48;;
81150;SDS011;70629;-26.026;27.976;2023-08-08T07:23:27;46.50;;;27.88;;
81150;SDS011;70629;-26.026;27.976;2023-08-08T07:25:03;49.28;;;29.10;;
81150;SDS011;70629;-26.026;27.976;2023-08-08T07:26:40;36.13;;;25.88;;
81150;SDS011;70629;-26.026;27.976;2023-08-08T07:28:15;46.05;;;27.35;;
81150;SDS011;70629;-26.026;27.976;2023-08-08T07:29:50;38.97;;;26.02;;
81150;SDS011;70629;-26.026;27.976;2023-08-08T07:31:25;34.20;;;21.58;;
81150;SDS011;70629;-26.026;27.976;2023-08-08T07:33:00;35.03;;;21.13;;
81150;SDS011;70629;-26.026;27.976;2023-08-08T07:34:35;31.73;;;19.30;;
81150;SDS011;70629;-26.026;27.976;2023-08-08T07:36:10;26.70;;;17.75;;
81150;SDS011;70629;-26.026;27.976;2023-08-08T07:37:45;31.13;;;18.92;;
81150;SDS011;70629;-26.026;27.976;2023-08-08T07:40:54;24.67;;;16.33;;
81150;SDS011;70629;-26.026;27.976;2023-08-08T07:42:29;25.25;;;14.88;;
81150;SDS011;70629;-26.026;27.976;2023-08-08T07:44:04;21.55;;;15.70;;
81150;SDS011;70629;-26.026;27.976;2023-08-08T07:45:39;26.45;;;15.95;;
81150;SDS011;70629;-26.026;27.976;2023-08-08T07:47:15;23.45;;;13.93;;
81150;SDS011;70629;-26.026;27.976;2023-08-08T07:48:50;27.05;;;15.80;;
81150;SDS011;70629;-26.026;27.976;2023-08-08T07:50:25;27.67;;;16.20;;
81150;SDS011;70629;-26.026;27.976;2023-08-08T07:52:00;30.00;;;16.90;;
81150;SDS011;70629;-26.026;27.976;2023-08-08T07:53:35;27.27;;;15.73;;
81150;SDS011;70629;-26.026;27.976;2023-08-08T07:55:10;23.38;;;15.57;;
81150;SDS011;70629;-26.026;27.976;2023-08-08T07:56:45;23.55;;;14.02;;
81150;SDS011;70629;-26.026;27.976;2023-08-08T07:58:20;20.90;;;14.60;;
81150;SDS011;70629;-26.026;27.976;2023-08-08T07:59:57;25.13;;;15.63;;
81150;SDS011;70629;-26.026;27.976;2023-08-08T08:01:32;27.77;;;15.50;;
81150;SDS011;70629;-26.026;27.976;2023-08-08T08:03:07;23.05;;;15.90;;
81150;SDS011;70629;-26.026;27.976;2023-08-08T08:04:42;23.88;;;15.23;;
81150;SDS011;70629;-26.026;27.976;2023-08-08T08:06:17;26.45;;;15.43;;
81150;SDS011;70629;-26.026;27.976;2023-08-08T08:07:52;20.55;;;13.77;;
81150;SDS011;70629;-26.026;27.976;2023-08-08T08:09:27;31.33;;;19.40;;
81150;SDS011;70629;-26.026;27.976;2023-08-08T08:11:02;32.05;;;19.45;;
81150;SDS011;70629;-26.026;27.976;2023-08-08T08:12:37;22.60;;;14.32;;
81150;SDS011;70629;-26.026;27.976;2023-08-08T08:14:12;21.88;;;15.80;;
81150;SDS011;70629;-26.026;27.976;2023-08-08T08:15:47;24.38;;;15.57;;
81150;SDS011;70629;-26.026;27.976;2023-08-08T08:17:22;24.25;;;15.80;;
81150;SDS011;70629;-26.026;27.976;2023-08-08T08:18:57;20.58;;;16.30;;
81150;SDS011;70629;-26.026;27.976;2023-08-08T08:20:32;29.52;;;14.93;;
81150;SDS011;70629;-26.026;27.976;2023-08-08T08:22:07;25.48;;;16.65;;
81150;SDS011;70629;-26.026;27.976;2023-08-08T08:23:43;30.90;;;14.95;;
81150;SDS011;70629;-26.026;27.976;2023-08-08T08:25:18;25.88;;;15.85;;
81150;SDS011;70629;-26.026;27.976;2023-08-08T08:26:54;27.05;;;15.98;;
81150;SDS011;70629;-26.026;27.976;2023-08-08T08:28:29;21.17;;;15.27;;
81150;SDS011;70629;-26.026;27.976;2023-08-08T08:30:04;23.85;;;16.70;;
81150;SDS011;70629;-26.026;27.976;2023-08-08T08:31:42;25.52;;;17.42;;
81150;SDS011;70629;-26.026;27.976;2023-08-08T08:33:17;23.67;;;15.43;;
81150;SDS011;70629;-26.026;27.976;2023-08-08T08:34:52;19.48;;;13.73;;
81150;SDS011;70629;-26.026;27.976;2023-08-08T08:36:27;20.30;;;15.60;;
81150;SDS011;70629;-26.026;27.976;2023-08-08T08:38:03;22.13;;;17.15;;
81150;SDS011;70629;-26.026;27.976;2023-08-08T08:39:38;22.90;;;16.23;;
81150;SDS011;70629;-26.026;27.976;2023-08-08T08:41:15;20.52;;;15.88;;
81150;SDS011;70629;-26.026;27.976;2023-08-08T08:42:53;31.30;;;16.50;;
81150;SDS011;70629;-26.026;27.976;2023-08-08T08:44:30;25.33;;;16.27;;
81150;SDS011;70629;-26.026;27.976;2023-08-08T08:46:08;17.23;;;11.90;;
81150;SDS011;70629;-26.026;27.976;2023-08-08T08:47:46;26.58;;;15.20;;
81150;SDS011;70629;-26.026;27.976;2023-08-08T08:49:22;22.73;;;13.90;;
81150;SDS011;70629;-26.026;27.976;2023-08-08T08:51:00;19.60;;;17.48;;
81150;SDS011;70629;-26.026;27.976;2023-08-08T08:52:36;18.90;;;14.50;;
81150;SDS011;70629;-26.026;27.976;2023-08-08T08:54:12;24.33;;;16.02;;
81150;SDS011;70629;-26.026;27.976;2023-08-08T08:55:49;28.67;;;14.63;;
81150;SDS011;70629;-26.026;27.976;2023-08-08T08:57:25;20.38;;;13.20;;
81150;SDS011;70629;-26.026;27.976;2023-08-08T08:59:01;21.75;;;13.32;;
81150;SDS011;70629;-26.026;27.976;2023-08-08T09:00:36;19.17;;;12.70;;
81150;SDS011;70629;-26.026;27.976;2023-08-08T09:02:11;20.55;;;11.68;;
81150;SDS011;70629;-26.026;27.976;2023-08-08T09:03:48;14.43;;;11.55;;
81150;SDS011;70629;-26.026;27.976;2023-08-08T09:05:23;19.45;;;13.65;;
81150;SDS011;70629;-26.026;27.976;2023-08-08T09:06:59;18.90;;;12.43;;
81150;SDS011;70629;-26.026;27.976;2023-08-08T09:08:35;17.95;;;12.73;;
81150;SDS011;70629;-26.026;27.976;2023-08-08T09:10:13;20.40;;;14.30;;
81150;SDS011;70629;-26.026;27.976;2023-08-08T09:11:51;18.23;;;12.02;;
81150;SDS011;70629;-26.026;27.976;2023-08-08T09:13:36;22.27;;;13.48;;
81150;SDS011;70629;-26.026;27.976;2023-08-08T09:15:13;17.23;;;12.77;;
81150;SDS011;70629;-26.026;27.976;2023-08-08T09:16:48;22.92;;;12.80;;
81150;SDS011;70629;-26.026;27.976;2023-08-08T09:18:23;16.45;;;12.65;;
81150;SDS011;70629;-26.026;27.976;2023-08-08T09:19:58;19.92;;;12.27;;
81150;SDS011;70629;-26.026;27.976;2023-08-08T09:21:34;17.48;;;12.40;;
81150;SDS011;70629;-26.026;27.976;2023-08-08T09:23:09;20.73;;;14.07;;
81150;SDS011;70629;-26.026;27.976;2023-08-08T09:24:44;15.95;;;13.70;;
81150;SDS011;70629;-26.026;27.976;2023-08-08T09:26:20;19.27;;;14.73;;
81150;SDS011;70629;-26.026;27.976;2023-08-08T09:27:56;17.15;;;12.55;;
81150;SDS011;70629;-26.026;27.976;2023-08-08T09:29:30;16.55;;;12.02;;
81150;SDS011;70629;-26.026;27.976;2023-08-08T09:31:07;13.07;;;10.52;;
81150;SDS011;70629;-26.026;27.976;2023-08-08T09:32:43;15.60;;;11.10;;
81150;SDS011;70629;-26.026;27.976;2023-08-08T09:34:23;15.30;;;10.40;;
81150;SDS011;70629;-26.026;27.976;2023-08-08T09:36:00;15.60;;;10.38;;
81150;SDS011;70629;-26.026;27.976;2023-08-08T09:37:35;13.50;;;10.93;;
81150;SDS011;70629;-26.026;27.976;2023-08-08T09:39:10;22.08;;;10.68;;
81150;SDS011;70629;-26.026;27.976;2023-08-08T09:40:45;13.93;;;10.80;;
81150;SDS011;70629;-26.026;27.976;2023-08-08T09:42:20;16.73;;;11.20;;
81150;SDS011;70629;-26.026;27.976;2023-08-08T09:43:55;13.13;;;9.60;;
81150;SDS011;70629;-26.026;27.976;2023-08-08T09:45:36;12.60;;;7.47;;
81150;SDS011;70629;-26.026;27.976;2023-08-08T09:47:12;10.23;;;8.38;;
81150;SDS011;70629;-26.026;27.976;2023-08-08T09:48:49;11.07;;;8.90;;
81150;SDS011;70629;-26.026;27.976;2023-08-08T09:50:25;12.98;;;8.80;;
81150;SDS011;70629;-26.026;27.976;2023-08-08T09:52:00;14.40;;;10.40;;
81150;SDS011;70629;-26.026;27.976;2023-08-08T09:53:36;13.23;;;8.50;;
81150;SDS011;70629;-26.026;27.976;2023-08-08T09:55:13;10.82;;;8.45;;
81150;SDS011;70629;-26.026;27.976;2023-08-08T09:56:49;11.02;;;9.13;;
81150;SDS011;70629;-26.026;27.976;2023-08-08T09:58:25;11.38;;;8.98;;
81150;SDS011;70629;-26.026;27.976;2023-08-08T10:00:02;11.77;;;9.20;;
81150;SDS011;70629;-26.026;27.976;2023-08-08T10:01:40;13.10;;;9.15;;
81150;SDS011;70629;-26.026;27.976;2023-08-08T10:03:16;12.50;;;8.73;;
81150;SDS011;70629;-26.026;27.976;2023-08-08T10:04:52;11.25;;;8.02;;
81150;SDS011;70629;-26.026;27.976;2023-08-08T10:06:29;10.07;;;8.98;;
81150;SDS011;70629;-26.026;27.976;2023-08-08T10:08:05;19.35;;;9.02;;
81150;SDS011;70629;-26.026;27.976;2023-08-08T10:09:40;12.63;;;7.78;;
81150;SDS011;70629;-26.026;27.976;2023-08-08T10:11:15;12.35;;;8.88;;
81150;SDS011;70629;-26.026;27.976;2023-08-08T10:12:52;14.73;;;8.80;;
81150;SDS011;70629;-26.026;27.976;2023-08-08T10:14:30;11.02;;;9.15;;
81150;SDS011;70629;-26.026;27.976;2023-08-08T10:16:09;9.88;;;7.95;;
81150;SDS011;70629;-26.026;27.976;2023-08-08T10:17:44;10.20;;;7.40;;
81150;SDS011;70629;-26.026;27.976;2023-08-08T10:19:21;14.18;;;9.70;;
81150;SDS011;70629;-26.026;27.976;2023-08-08T10:20:57;13.45;;;8.65;;
81150;SDS011;70629;-26.026;27.976;2023-08-08T10:22:33;13.13;;;9.15;;
81150;SDS011;70629;-26.026;27.976;2023-08-08T10:24:08;12.23;;;8.57;;
81150;SDS011;70629;-26.026;27.976;2023-08-08T10:25:45;13.57;;;9.55;;
81150;SDS011;70629;-26.026;27.976;2023-08-08T10:27:27;17.55;;;9.65;;
81150;SDS011;70629;-26.026;27.976;2023-08-08T10:29:05;14.38;;;9.73;;
81150;SDS011;70629;-26.026;27.976;2023-08-08T10:32:39;14.02;;;9.27;;
81150;SDS011;70629;-26.026;27.976;2023-08-08T10:34:19;14.85;;;9.43;;
81150;SDS011;70629;-26.026;27.976;2023-08-08T10:37:30;21.17;;;10.95;;
81150;SDS011;70629;-26.026;27.976;2023-08-08T10:39:06;12.80;;;9.57;;
81150;SDS011;70629;-26.026;27.976;2023-08-08T10:40:59;12.50;;;9.98;;
81150;SDS011;70629;-26.026;27.976;2023-08-08T10:42:43;14.52;;;10.45;;
81150;SDS011;70629;-26.026;27.976;2023-08-08T10:44:21;14.05;;;10.13;;
81150;SDS011;70629;-26.026;27.976;2023-08-08T10:46:03;12.77;;;10.35;;
81150;SDS011;70629;-26.026;27.976;2023-08-08T10:47:46;13.68;;;10.48;;
81150;SDS011;70629;-26.026;27.976;2023-08-08T10:49:23;14.25;;;10.63;;
81150;SDS011;70629;-26.026;27.976;2023-08-08T10:50:58;13.25;;;10.15;;